Time;durP1;ratioP1;P1;durP2;ratioP2;P2;SDS_P1;SDS_P2;PMS_P1;PMS_P2;Temp;Humidity;BMP_temperature;BMP_pressure;BME280_temperature;BME280_humidity;BME280_pressure;Samples;Min_cycle;Max_cycle;Signal;HPM_P1;HPM_P2
2021/11/02 00:01:41;;;;;;;33.92;22.27;;;;;;;10.66;72.56;99555.86;1712181;83;20905;-68
2021/11/02 00:04:07;;;;;;;34.63;23.57;;;;;;;10.67;72.58;99566.59;1711818;83;20929;-68
2021/11/02 00:06:35;;;;;;;30.65;22.48;;;;;;;10.69;72.59;99567.39;1671136;85;20977;-68
2021/11/02 00:09:05;;;;;;;32.78;21.77;;;;;;;10.70;72.59;99568.63;1712368;83;20929;-68
2021/11/02 00:11:32;;;;;;;28.30;20.77;;;;;;;10.70;72.66;99564.75;1712153;83;21390;-68
2021/11/02 00:14:01;;;;;;;;;;;;;;;10.71;72.62;99569.47;1709942;83;20976;-68
2021/11/02 00:16:28;;;;;;;28.62;20.57;;;;;;;10.72;73.04;99562.12;1674516;85;20154;-68
2021/11/02 00:19:03;;;;;;;31.05;21.77;;;;;;;10.72;72.72;99565.55;1658446;85;20989;-68
2021/11/02 00:21:31;;;;;;;34.83;20.43;;;;;;;10.74;72.77;99570.22;1665061;85;20889;-68
2021/11/02 00:24:08;;;;;;;31.35;21.25;;;;;;;10.75;72.76;99569.33;1665057;85;20892;-68
2021/11/02 00:26:24;;;;;;;32.73;21.75;;;;;;;10.76;72.77;99565.84;1663941;85;20944;-68
2021/11/02 00:28:50;;;;;;;33.77;21.63;;;;;;;10.77;72.80;99570.56;1648712;86;20948;-68
2021/11/02 00:31:16;;;;;;;35.50;22.07;;;;;;;10.77;72.83;99569.27;1650683;86;20900;-68
2021/11/02 00:33:42;;;;;;;31.03;20.70;;;;;;;10.78;72.85;99565.79;1656664;85;20975;-68
2021/11/02 00:36:08;;;;;;;29.18;20.27;;;;;;;10.80;72.88;99562.70;1686047;84;20941;-68
2021/11/02 00:38:35;;;;;;;27.93;20.77;;;;;;;10.78;72.86;99545.95;1661382;85;20935;-68
2021/11/02 00:41:01;;;;;;;30.07;21.30;;;;;;;10.77;72.90;99538.24;1691676;84;21436;-68
2021/11/02 00:43:28;;;;;;;30.97;21.97;;;;;;;10.75;72.95;99539.59;1691515;84;20955;-68
2021/11/02 00:45:55;;;;;;;30.70;21.10;;;;;;;10.77;73.02;99535.66;1690448;84;20963;-68
2021/11/02 00:48:26;;;;;;;31.13;21.67;;;;;;;10.78;73.03;99535.61;1691482;84;20947;-68
2021/11/02 00:50:52;;;;;;;31.75;21.17;;;;;;;10.80;73.05;99532.97;1691390;84;21384;-68
2021/11/02 00:53:22;;;;;;;29.60;21.57;;;;;;;10.79;73.06;99532.57;1691540;84;20960;-68
2021/11/02 00:55:48;;;;;;;30.15;20.77;;;;;;;10.79;73.06;99524.36;1671287;84;20978;-68
2021/11/02 00:58:15;;;;;;;31.77;20.77;;;;;;;10.77;73.12;99524.87;1691215;84;20931;-68
2021/11/02 01:00:43;;;;;;;28.17;22.17;;;;;;;10.79;73.16;99518.34;1690186;84;20954;-68
2021/11/02 01:03:09;;;;;;;30.02;21.48;;;;;;;10.80;73.18;99510.98;1690643;83;21007;-68
2021/11/02 01:05:38;;;;;;;35.48;21.85;;;;;;;10.79;73.19;99510.14;1668786;84;20920;-68
2021/11/02 01:08:05;;;;;;;30.02;20.95;;;;;;;10.79;73.22;99506.27;1679556;84;21473;-68
2021/11/02 01:10:32;;;;;;;31.73;20.95;;;;;;;10.79;73.25;99506.27;1687072;84;20896;-68
2021/11/02 01:12:58;;;;;;;28.62;20.88;;;;;;;10.79;73.26;99506.27;1689709;84;21452;-68
2021/11/02 01:15:28;;;;;;;33.10;21.23;;;;;;;10.79;73.28;99502.39;1690011;84;20938;-68
2021/11/02 01:17:55;;;;;;;30.45;20.30;;;;;;;10.78;73.29;99505.02;1686357;84;21056;-68
2021/11/02 01:20:21;;;;;;;32.70;21.27;;;;;;;10.78;73.31;99503.73;1637012;87;20931;-68
2021/11/02 01:22:48;;;;;;;27.83;20.40;;;;;;;10.77;73.36;99505.47;1635049;87;20968;-68
2021/11/02 01:25:16;;;;;;;30.95;21.25;;;;;;;10.78;73.38;99503.28;1646031;87;20968;-68
2021/11/02 01:27:43;;;;;;;31.25;22.05;;;;;;;10.78;73.40;99501.14;1644374;87;20946;-68
2021/11/02 01:30:11;;;;;;;31.42;22.00;;;;;;;10.74;73.36;99495.23;1641638;87;20931;-68
2021/11/02 01:32:38;;;;;;;30.12;21.52;;;;;;;10.70;73.45;99488.93;1646631;87;20965;-68
2021/11/02 01:35:06;;;;;;;27.20;20.25;;;;;;;10.68;73.52;99480.38;1643216;87;20980;-68
2021/11/02 01:37:34;;;;;;;28.87;22.10;;;;;;;10.67;73.49;99467.06;1646191;87;20925;-68
2021/11/02 01:40:00;;;;;;;26.52;20.50;;;;;;;10.68;73.58;99471.33;1637069;87;21060;-68
2021/11/02 01:42:29;;;;;;;25.88;19.40;;;;;;;10.66;73.62;99463.62;1641338;85;20885;-68
2021/11/02 01:44:56;;;;;;;30.07;20.90;;;;;;;10.64;73.59;99456.83;1644493;87;20912;-68
2021/11/02 01:47:23;;;;;;;29.12;21.20;;;;;;;10.60;73.59;99445.74;1636061;87;21378;-68
2021/11/02 01:49:50;;;;;;;30.10;20.12;;;;;;;10.57;73.65;99447.14;1647156;87;20917;-68
2021/11/02 01:52:17;;;;;;;26.35;19.37;;;;;;;10.57;73.71;99446.70;1644938;87;20985;-68
2021/11/02 01:54:43;;;;;;;24.98;18.65;;;;;;;10.57;73.74;99445.41;1647142;87;20927;-68
2021/11/02 01:57:10;;;;;;;29.07;20.02;;;;;;;10.58;73.75;99441.08;1642446;87;20897;-68
2021/11/02 01:59:38;;;;;;;27.27;18.70;;;;;;;10.56;73.77;99439.84;1636059;87;20968;-68
2021/11/02 02:02:18;;;;;;;29.63;19.12;;;;;;;10.57;73.82;99441.53;1637497;87;20936;-68
2021/11/02 02:05:21;;;;;;;27.77;19.77;;;;;;;10.57;73.83;99442.81;1635058;87;20905;-68
2021/11/02 02:08:27;;;;;;;27.05;19.25;;;;;;;10.57;73.84;99440.23;1646915;87;21033;-68
2021/11/02 02:11:35;;;;;;;28.73;19.17;;;;;;;10.58;73.88;99434.16;1632612;87;20957;-68
2021/11/02 02:14:24;;;;;;;27.67;18.23;;;;;;;10.57;73.90;99436.36;1643850;87;21650;-68
2021/11/02 02:16:53;;;;;;;30.35;18.12;;;;;;;10.57;73.95;99442.81;1646531;87;20960;-68
2021/11/02 02:19:50;;;;;;;26.42;18.82;;;;;;;10.58;73.99;99435.91;1660729;84;20962;-68
2021/11/02 02:22:55;;;;;;;23.18;17.67;;;;;;;10.57;73.96;99426.02;1690293;84;21407;-68
2021/11/02 02:26:02;;;;;;;26.33;17.65;;;;;;;10.58;73.96;99428.16;1690458;84;20985;-68
2021/11/02 02:28:36;;;;;;;26.07;17.75;;;;;;;10.56;73.99;99421.74;1660232;85;21011;-68
2021/11/02 02:31:06;;;;;;;26.30;18.10;;;;;;;10.58;74.07;99429.45;1670659;84;20912;-68
2021/11/02 02:33:40;;;;;;;26.52;19.02;;;;;;;10.59;74.10;99411.75;1677221;84;20895;-68
2021/11/02 02:36:06;;;;;;;20.08;16.42;;;;;;;10.59;74.12;99404.84;1660255;85;20968;-68
2021/11/02 02:38:36;;;;;;;22.60;17.98;;;;;;;10.61;74.14;99411.24;1672722;85;20916;-68
2021/11/02 02:41:05;;;;;;;27.22;18.77;;;;;;;10.63;74.18;99403.44;1667864;85;20919;-68
2021/11/02 02:43:39;;;;;;;26.70;19.12;;;;;;;10.64;74.18;99402.09;1658448;85;20928;-68
2021/11/02 02:46:07;;;;;;;24.60;18.35;;;;;;;10.65;74.20;99406.36;1674351;85;20980;-68
2021/11/02 02:48:35;;;;;;;30.50;18.35;;;;;;;10.65;74.21;99398.61;1667297;85;20960;-68
2021/11/02 02:51:03;;;;;;;;;;;;;;;10.66;74.23;99393.83;1665380;85;20927;-68
2021/11/02 02:53:30;;;;;;;23.45;17.55;;;;;;;10.65;74.56;99393.44;1674460;85;20087;-68
2021/11/02 02:56:08;;;;;;;24.80;17.42;;;;;;;10.65;74.37;99391.30;1672153;85;20959;-68
2021/11/02 02:58:37;;;;;;;22.62;17.70;;;;;;;10.64;74.34;99383.15;1674297;85;20923;-68
2021/11/02 03:01:08;;;;;;;24.72;18.12;;;;;;;10.64;74.35;99383.15;1674294;85;20915;-68
2021/11/02 03:03:50;;;;;;;25.40;18.98;;;;;;;10.62;74.36;99381.91;1685243;84;20890;-68
2021/11/02 03:06:23;;;;;;;27.48;17.85;;;;;;;10.61;74.42;99379.78;1661037;85;20967;-68
2021/11/02 03:08:50;;;;;;;26.93;17.65;;;;;;;10.60;74.42;99376.80;1715010;83;20944;-68
2021/11/02 03:11:17;;;;;;;21.90;17.65;;;;;;;10.60;74.45;99375.95;1726394;81;21501;-68
2021/11/02 03:13:47;;;;;;;24.52;18.27;;;;;;;10.59;74.45;99369.94;1715951;82;20905;-68
2021/11/02 03:16:18;;;;;;;25.65;18.85;;;;;;;10.58;74.49;99372.58;1723617;83;21420;-68
2021/11/02 03:19:15;;;;;;;25.97;19.10;;;;;;;10.58;74.54;99377.30;1722845;82;20879;-68
2021/11/02 03:44:08;;;;;;;24.67;17.50;;;;;;;10.54;74.75;99367.13;1672559;85;20912;-68
2021/11/02 03:54:32;;;;;;;27.90;18.30;;;;;;;10.46;74.82;99360.94;1712173;83;20945;-68
2021/11/02 03:54:50;;;;;;;24.67;16.80;;;;;;;10.46;74.83;99367.84;1700280;83;20925;-68
2021/11/02 03:57:38;;;;;;;23.27;17.10;;;;;;;10.46;74.87;99356.22;1675760;85;20966;-68
2021/11/02 04:28:01;;;;;;;25.50;18.23;;;;;;;10.32;75.04;99354.59;1721400;83;20895;-68
2021/11/02 04:44:12;;;;;;;30.08;19.52;;;;;;;10.23;75.27;99354.47;1719974;83;20917;-69
2021/11/02 05:10:45;;;;;;;29.18;19.57;;;;;;;10.16;75.61;99333.58;1747110;81;20941;-71
2021/11/02 05:49:08;;;;;;;29.02;20.23;;;;;;;10.15;76.07;99331.89;1709171;82;20945;-72
2021/11/02 05:51:40;;;;;;;27.55;19.35;;;;;;;10.16;76.12;99334.43;1704233;84;20924;-72
2021/11/02 05:56:27;;;;;;;26.07;18.27;;;;;;;10.16;76.07;99332.30;1707217;84;20877;-71
2021/11/02 06:06:35;;;;;;;29.18;20.27;;;;;;;10.17;76.27;99322.36;1706409;84;20929;-71
2021/11/02 06:09:24;;;;;;;28.40;21.02;;;;;;;10.18;76.31;99322.75;1679880;84;50109;-72
2021/11/02 06:29:01;;;;;;;29.10;20.88;;;;;;;10.24;76.55;99322.13;1703974;84;21409;-72
2021/11/02 06:31:39;;;;;;;28.87;20.60;;;;;;;10.24;76.54;99323.86;1706949;82;21000;-72
2021/11/02 06:34:36;;;;;;;31.80;21.85;;;;;;;10.25;76.61;99317.34;1700767;83;21422;-72
2021/11/02 06:37:27;;;;;;;26.50;20.88;;;;;;;10.26;76.63;99322.06;1748490;81;20944;-72
2021/11/02 06:48:17;;;;;;;28.32;21.23;;;;;;;10.27;76.70;99311.68;1745063;80;21496;-72
2021/11/02 07:27:48;;;;;;;34.03;23.70;;;;;;;10.44;77.16;99312.34;1691649;82;21378;-72
2021/11/02 08:46:44;;;;;;;13.13;10.68;;;;;;;10.33;78.16;99277.48;1748795;80;20850;-73
2021/11/02 08:48:57;;;;;;;11.78;10.58;;;;;;;10.30;78.18;99275.84;1747946;80;20857;-73
2021/11/02 08:51:25;;;;;;;12.23;9.93;;;;;;;10.27;78.20;99280.67;1719889;82;20898;-73
2021/11/02 08:53:52;;;;;;;13.60;10.63;;;;;;;10.28;78.27;99282.81;1744163;80;20960;-73
2021/11/02 08:56:19;;;;;;;11.40;10.18;;;;;;;10.28;78.36;99284.95;1728994;81;20917;-73
2021/11/02 08:58:49;;;;;;;10.10;9.10;;;;;;;10.29;78.37;99288.38;1750560;81;20933;-73
2021/11/02 09:01:18;;;;;;;9.33;7.97;;;;;;;10.29;78.34;99292.25;1719777;82;20926;-73
2021/11/02 09:03:52;;;;;;;10.35;8.00;;;;;;;10.25;78.27;99282.92;1748765;81;20881;-73
2021/11/02 09:06:22;;;;;;;13.35;7.60;;;;;;;10.24;78.34;99282.53;1750727;81;20905;-73
2021/11/02 09:08:54;;;;;;;8.45;6.80;;;;;;;10.23;78.34;99284.27;1750481;81;20870;-73
2021/11/02 09:11:19;;;;;;;7.35;6.50;;;;;;;10.23;78.22;99284.72;1703673;82;21355;-73
2021/11/02 09:13:49;;;;;;;9.33;7.70;;;;;;;10.19;78.24;99280.11;1747914;81;20855;-74
2021/11/02 09:16:19;;;;;;;7.60;6.72;;;;;;;10.17;78.41;99282.31;1750488;80;20901;-74
2021/11/02 09:18:47;;;;;;;7.80;6.58;;;;;;;10.16;78.46;99284.06;1707864;82;20920;-74
2021/11/02 09:21:15;;;;;;;7.00;6.22;;;;;;;10.18;78.46;99286.59;1750780;81;21276;-74
2021/11/02 09:23:46;;;;;;;7.30;6.42;;;;;;;10.18;78.51;99286.14;1751773;80;20901;-74
2021/11/02 09:26:15;;;;;;;7.53;6.20;;;;;;;10.19;78.55;99285.69;1740719;80;20932;-74
2021/11/02 09:28:42;;;;;;;6.90;6.20;;;;;;;10.20;78.58;99287.41;1742982;81;20933;-74
2021/11/02 09:31:27;;;;;;;6.85;6.15;;;;;;;10.21;78.55;99280.89;1747851;80;20899;-74
2021/11/02 09:33:53;;;;;;;6.92;5.78;;;;;;;10.23;78.63;99282.97;1736347;80;20980;-74
2021/11/02 09:36:23;;;;;;;6.90;6.13;;;;;;;10.25;78.65;99276.02;1752514;80;21011;-74
2021/11/02 09:39:04;;;;;;;6.90;6.20;;;;;;;10.27;78.67;99273.38;1725851;82;20862;-74
2021/11/02 09:42:33;;;;;;;5.90;5.33;;;;;;;10.27;78.59;99273.38;1695902;82;20881;-74
2021/11/02 09:45:31;;;;;;;6.33;5.72;;;;;;;10.27;78.75;99270.34;1707108;84;20937;-74
2021/11/02 09:48:20;;;;;;;5.55;5.05;;;;;;;10.28;78.75;99275.06;1709798;82;20980;-74
2021/11/02 09:51:11;;;;;;;5.72;5.10;;;;;;;10.29;78.76;99274.16;1621918;87;20934;-74
2021/11/02 09:53:56;;;;;;;6.37;5.10;;;;;;;10.29;78.78;99272.88;1692663;83;20892;-74
2021/11/02 09:56:37;;;;;;;5.12;4.62;;;;;;;10.28;78.81;99269.44;1691451;83;21044;-74
2021/11/02 09:59:39;;;;;;;5.53;4.92;;;;;;;10.28;78.88;99269.89;1695767;83;20965;-74
2021/11/02 10:02:42;;;;;;;5.10;4.70;;;;;;;10.29;78.87;99267.70;1696063;83;20974;-74
2021/11/02 10:05:40;;;;;;;5.03;4.62;;;;;;;10.28;78.89;99264.73;1703810;83;20964;-74
2021/11/02 10:08:46;;;;;;;4.90;4.45;;;;;;;10.28;78.94;99262.14;1694923;83;21043;-74
2021/11/02 10:11:54;;;;;;;9.28;4.42;;;;;;;10.27;78.98;99266.47;1695962;83;20960;-74
2021/11/02 10:14:40;;;;;;;4.53;4.12;;;;;;;10.25;78.88;99258.38;1692291;83;20955;-74
2021/11/02 10:17:36;;;;;;;4.97;4.58;;;;;;;10.21;78.86;99256.35;1694046;83;21078;-74
2021/11/02 10:20:36;;;;;;;6.33;5.03;;;;;;;10.16;78.89;99256.94;1692724;83;20972;-74
2021/11/02 10:23:26;;;;;;;4.47;4.08;;;;;;;10.15;78.90;99260.86;1698753;83;20936;-74
2021/11/02 10:26:25;;;;;;;4.40;3.92;;;;;;;10.10;79.03;99258.45;1686387;83;21451;-74
2021/11/02 10:29:19;;;;;;;4.28;3.87;;;;;;;10.11;79.07;99265.30;1669510;85;20877;-74
2021/11/02 10:32:05;;;;;;;3.92;3.33;;;;;;;10.09;79.11;99255.92;1690522;82;21109;-74
2021/11/02 10:35:15;;;;;;;4.30;3.55;;;;;;;10.09;79.11;99252.89;1740809;80;21036;-74
2021/11/02 10:38:02;;;;;;;2.80;2.40;;;;;;;10.05;79.04;99253.05;1749314;80;21119;-74
2021/11/02 10:40:42;;;;;;;2.90;2.70;;;;;;;10.03;79.06;99253.55;1675752;84;21212;-74
2021/11/02 10:43:30;;;;;;;2.75;2.55;;;;;;;10.01;79.12;99252.31;1738279;80;20906;-74
2021/11/02 10:46:06;;;;;;;3.72;2.50;;;;;;;10.02;79.26;99258.32;1739437;80;20954;-74
2021/11/02 10:48:47;;;;;;;2.45;2.02;;;;;;;10.02;79.25;99256.58;1751844;81;20917;-74
2021/11/02 10:51:40;;;;;;;4.17;1.62;;;;;;;9.98;79.18;99261.91;1708539;82;20956;-74
2021/11/02 10:54:23;;;;;;;2.72;1.77;;;;;;;9.95;79.20;99256.41;1744412;81;20917;-74
2021/11/02 10:57:15;;;;;;;1.47;1.37;;;;;;;9.91;79.31;99260.83;1692912;84;21012;-74
2021/11/02 10:59:47;;;;;;;1.45;1.35;;;;;;;9.90;79.28;99259.59;1691475;83;21932;-74
2021/11/02 11:02:28;;;;;;;1.70;1.60;;;;;;;9.88;79.29;99253.64;1683823;83;21411;-74
2021/11/02 11:05:00;;;;;;;1.42;1.32;;;;;;;9.87;79.37;99251.54;1694355;84;20953;-74
2021/11/02 11:07:40;;;;;;;1.45;1.25;;;;;;;9.89;79.42;99260.48;1693981;84;20977;-74
2021/11/02 11:10:10;;;;;;;1.30;1.20;;;;;;;9.91;79.44;99263.86;1658893;84;20977;-74
2021/11/02 11:12:56;;;;;;;2.42;1.55;;;;;;;9.91;79.47;99267.28;1690046;83;20901;-74
2021/11/02 11:15:27;;;;;;;2.10;1.90;;;;;;;9.93;79.54;99264.65;1688364;83;21076;-74
2021/11/02 11:18:07;;;;;;;2.10;1.90;;;;;;;9.96;79.53;99265.84;1679723;84;20969;-74
2021/11/02 11:20:39;;;;;;;1.77;1.60;;;;;;;9.97;79.54;99264.94;1689509;83;21062;-74
2021/11/02 11:23:08;;;;;;;1.52;1.42;;;;;;;10.01;79.57;99262.64;1691198;83;21362;-74
2021/11/02 11:25:45;;;;;;;1.85;1.67;;;;;;;10.03;79.55;99272.92;1691102;83;20973;-74
2021/11/02 11:28:18;;;;;;;1.60;1.50;;;;;;;10.01;79.44;99269.10;1690076;84;21060;-74
2021/11/02 11:30:46;;;;;;;1.47;1.37;;;;;;;10.01;79.52;99266.97;1684188;83;20965;-74
2021/11/02 11:33:16;;;;;;;1.62;1.42;;;;;;;9.99;79.53;99264.44;1681351;83;20977;-74
2021/11/02 11:48:21;;;;;;;1.95;1.70;;;;;;;10.52;79.67;99272.84;1756181;79;22814;-73
2021/11/02 11:50:49;;;;;;;1.98;1.87;;;;;;;10.46;79.70;99290.31;1727662;81;21008;-73
2021/11/02 11:53:19;;;;;;;2.92;1.55;;;;;;;10.44;79.83;99289.53;1755070;80;21500;-73
2021/11/02 11:55:51;;;;;;;1.55;1.35;;;;;;;10.41;79.83;99283.18;1755100;80;20929;-74
2021/11/02 11:58:23;;;;;;;1.30;1.20;;;;;;;10.34;79.73;99280.45;1723263;81;21004;-73
2021/11/02 12:01:10;;;;;;;2.22;0.90;;;;;;;10.30;79.83;99275.84;1735065;81;20951;-73
2021/11/02 12:03:59;;;;;;;0.80;0.80;;;;;;;10.23;79.71;99276.52;1734579;81;21580;-73
2021/11/02 12:06:40;;;;;;;1.75;0.90;;;;;;;10.19;79.97;99278.81;1740548;81;21016;-73
2021/11/02 12:09:17;;;;;;;0.72;0.72;;;;;;;10.20;79.98;99284.83;1734543;81;20983;-73
2021/11/02 12:11:43;;;;;;;;;;;;;;;10.15;80.00;99284.11;1743848;81;20992;-73
2021/11/02 12:14:25;;;;;;;0.70;0.70;;;;;;;10.12;80.10;99281.19;1738381;81;20171;-74
2021/11/02 12:16:58;;;;;;;0.80;0.70;;;;;;;10.08;79.94;99285.22;1735769;81;21498;-73
2021/11/02 12:19:38;;;;;;;0.50;0.50;;;;;;;9.99;79.87;99280.38;1746178;81;21142;-73
2021/11/02 12:22:12;;;;;;;0.55;0.55;;;;;;;9.93;80.00;99288.73;1755377;80;21378;-74
2021/11/02 12:24:38;;;;;;;4.60;0.68;;;;;;;9.89;79.91;99292.77;1733827;81;21125;-74
2021/11/02 12:27:17;;;;;;;1.37;0.68;;;;;;;9.84;79.97;99297.27;1737574;81;21035;-73
2021/11/02 12:29:48;;;;;;;0.72;0.72;;;;;;;9.76;79.88;99300.11;1742217;81;20891;-74
2021/11/02 12:32:18;;;;;;;0.85;0.80;;;;;;;9.70;79.90;99306.77;1736745;81;21928;-74
2021/11/02 12:35:03;;;;;;;0.70;0.70;;;;;;;9.65;79.99;99309.95;1734853;81;20949;-74
2021/11/02 12:37:24;;;;;;;0.70;0.70;;;;;;;9.59;79.98;99310.14;1737257;80;20965;-74
2021/11/02 12:39:51;;;;;;;0.80;0.70;;;;;;;9.51;79.97;99314.27;1753026;80;20870;-73
2021/11/02 12:42:20;;;;;;;;;;;;;;;9.45;79.96;99316.20;1733192;80;21495;-74
2021/11/02 12:44:47;;;;;;;0.80;0.70;;;;;;;9.40;80.18;99315.05;1752582;80;20128;-74
2021/11/02 12:47:17;;;;;;;2.62;0.88;;;;;;;9.39;80.11;99313.37;1751937;81;20969;-74
2021/11/02 12:50:01;;;;;;;1.15;1.05;;;;;;;9.39;80.14;99317.69;1748097;80;21064;-73
2021/11/02 12:52:32;;;;;;;1.40;0.82;;;;;;;9.38;80.18;99316.84;1748771;80;21066;-74
2021/11/02 12:55:11;;;;;;;0.75;0.70;;;;;;;9.36;80.10;99321.69;1750471;80;20984;-74
2021/11/02 12:57:48;;;;;;;1.12;0.68;;;;;;;9.33;80.05;99323.06;1750953;80;21057;-73
2021/11/02 13:00:29;;;;;;;0.68;0.68;;;;;;;9.25;80.06;99316.41;1748113;80;21409;-74
2021/11/02 13:03:02;;;;;;;0.72;0.72;;;;;;;9.25;80.06;99316.41;1739813;80;20993;-73
2021/11/02 13:05:28;;;;;;;0.50;0.50;;;;;;;9.24;80.17;99313.88;1750703;80;21134;-74
2021/11/02 13:08:12;;;;;;;1.60;0.70;;;;;;;9.20;80.09;99319.58;1767612;79;21032;-74
2021/11/02 13:10:40;;;;;;;0.60;0.50;;;;;;;9.20;80.26;99319.58;1750357;80;21023;-73
2021/11/02 13:13:14;;;;;;;3.67;0.50;;;;;;;9.23;80.23;99324.64;1741890;80;21035;-73
2021/11/02 13:15:56;;;;;;;0.78;0.40;;;;;;;9.21;80.16;99326.42;1747137;80;21060;-73
2021/11/02 13:18:37;;;;;;;0.53;0.40;;;;;;;9.19;80.22;99320.47;1745965;80;20972;-74
2021/11/02 13:21:29;;;;;;;0.50;0.50;;;;;;;9.19;80.20;99329.50;1750623;80;20973;-73
2021/11/02 13:24:12;;;;;;;1.02;0.70;;;;;;;9.20;80.27;99335.06;1736717;80;20991;-74
2021/11/02 13:26:48;;;;;;;0.60;0.60;;;;;;;9.19;80.18;99337.23;1757819;80;20973;-74
2021/11/02 13:29:20;;;;;;;1.02;0.93;;;;;;;9.17;80.28;99336.44;1748006;80;21028;-73
2021/11/02 13:31:51;;;;;;;0.50;0.50;;;;;;;9.18;80.30;99335.99;1758706;80;21308;-74
2021/11/02 13:34:37;;;;;;;0.93;0.82;;;;;;;9.19;80.31;99336.39;1751924;80;21443;-74
2021/11/02 13:37:10;;;;;;;0.72;0.72;;;;;;;9.19;80.28;99340.27;1752375;80;20976;-74
2021/11/02 13:39:57;;;;;;;0.82;0.75;;;;;;;9.20;80.37;99341.95;1736776;80;21693;-73
2021/11/02 13:42:49;;;;;;;0.93;0.70;;;;;;;9.21;80.40;99345.77;1755468;80;21085;-73
2021/11/02 13:45:20;;;;;;;0.72;0.70;;;;;;;9.21;80.35;99344.48;1733239;80;21000;-74
2021/11/02 13:47:47;;;;;;;1.20;0.88;;;;;;;9.23;80.38;99345.73;1735779;80;21452;-74
2021/11/02 13:50:13;;;;;;;0.70;0.65;;;;;;;9.22;80.38;99346.17;1722595;81;21905;-74
2021/11/02 13:52:41;;;;;;;0.90;0.90;;;;;;;9.24;80.45;99352.13;1700334;83;23576;-74
2021/11/02 13:55:09;;;;;;;0.95;0.82;;;;;;;9.25;80.43;99350.39;1724249;81;21390;-74
2021/11/02 13:57:35;;;;;;;1.70;1.10;;;;;;;9.27;80.50;99352.48;1723373;81;21000;-74
2021/11/02 14:00:04;;;;;;;1.92;1.17;;;;;;;9.29;80.50;99354.56;1722739;82;21079;-74
2021/11/02 14:02:33;;;;;;;3.83;1.00;;;;;;;9.32;80.54;99351.05;1723900;81;21092;-74
2021/11/02 14:05:00;;;;;;;1.40;1.30;;;;;;;9.34;80.51;99348.81;1717277;81;20953;-74
2021/11/02 14:07:29;;;;;;;1.65;1.17;;;;;;;9.35;80.54;99347.92;1722497;81;21024;-74
2021/11/02 14:10:04;;;;;;;1.10;1.00;;;;;;;9.39;80.55;99355.09;1722312;81;21115;-74
2021/11/02 14:12:54;;;;;;;1.70;1.00;;;;;;;9.39;80.51;99350.78;1724208;81;20957;-74
2021/11/02 14:15:23;;;;;;;2.15;1.50;;;;;;;9.40;80.54;99353.75;1721129;82;20905;-74
2021/11/02 14:17:58;;;;;;;1.87;1.40;;;;;;;9.42;80.59;99353.70;1716874;81;21324;-74
2021/11/02 14:20:51;;;;;;;1.60;1.40;;;;;;;9.43;80.55;99355.39;1718944;82;21071;-74
2021/11/02 14:23:34;;;;;;;2.15;1.90;;;;;;;9.44;80.62;99354.06;1721125;82;22113;-73
2021/11/02 14:26:26;;;;;;;2.25;2.08;;;;;;;9.43;80.52;99357.53;1722115;81;21055;-74
2021/11/02 14:28:57;;;;;;;5.00;2.65;;;;;;;9.39;80.49;99360.25;1716438;82;21512;-73
2021/11/02 14:31:43;;;;;;;3.22;3.02;;;;;;;9.36;80.56;99366.83;1721276;81;21053;-74
2021/11/02 14:34:09;;;;;;;3.67;3.37;;;;;;;9.37;80.63;99367.19;1723519;81;21476;-74
2021/11/02 14:36:41;;;;;;;3.47;3.17;;;;;;;9.36;80.63;99368.12;1720417;81;21123;-73
2021/11/02 14:39:11;;;;;;;5.17;3.35;;;;;;;9.35;80.59;99370.30;1728849;81;21373;-73
2021/11/02 14:41:47;;;;;;;2.92;2.62;;;;;;;9.33;80.64;99366.48;1730761;81;20920;-73
2021/11/02 14:44:27;;;;;;;2.72;2.52;;;;;;;9.32;80.61;99366.52;1715568;81;21651;-73
2021/11/02 14:46:59;;;;;;;4.22;2.00;;;;;;;9.29;80.66;99369.59;1725744;80;21544;-73
2021/11/02 14:49:36;;;;;;;2.45;2.10;;;;;;;9.28;80.66;99366.62;1757816;80;21417;-73
2021/11/02 14:52:07;;;;;;;2.83;2.58;;;;;;;9.27;80.66;99373.95;1744557;80;21424;-73
2021/11/02 14:54:46;;;;;;;3.37;2.52;;;;;;;9.26;80.66;99368.84;1743299;80;21533;-73
2021/11/02 14:57:24;;;;;;;3.12;2.45;;;;;;;9.26;80.70;99367.55;1747731;80;20897;-73
2021/11/02 14:59:57;;;;;;;3.02;2.65;;;;;;;9.27;80.70;99367.95;1755098;80;21425;-73
2021/11/02 15:02:43;;;;;;;4.17;3.67;;;;;;;9.25;80.66;99362.00;1748917;80;20914;-73
2021/11/02 15:05:12;;;;;;;3.67;3.25;;;;;;;9.24;80.71;99367.60;1744627;80;21441;-73
2021/11/02 15:07:45;;;;;;;4.75;3.50;;;;;;;9.24;80.70;99369.34;1747022;80;21437;-70
2021/11/02 15:10:16;;;;;;;5.42;3.62;;;;;;;9.24;80.72;99369.34;1744587;80;21469;-72
2021/11/02 15:12:44;;;;;;;4.20;3.65;;;;;;;9.25;80.74;99370.58;1745934;80;21405;-70
2021/11/02 15:15:11;;;;;;;7.72;6.45;;;;;;;9.23;80.76;99373.66;1742903;80;21342;-70
2021/11/02 15:17:40;;;;;;;11.40;8.03;;;;;;;9.25;80.73;99377.47;1737379;81;21437;-70
2021/11/02 15:20:07;;;;;;;12.93;10.05;;;;;;;9.24;80.75;99370.63;1743681;80;21492;-70
2021/11/02 15:22:34;;;;;;;13.22;10.95;;;;;;;9.20;80.72;99369.88;1750245;80;21032;-70
2021/11/02 15:25:06;;;;;;;15.18;10.70;;;;;;;9.20;80.75;99375.03;1763769;80;21053;-70
2021/11/02 15:27:37;;;;;;;11.68;9.55;;;;;;;9.19;80.76;99377.66;1761398;80;21128;-70
2021/11/02 15:30:14;;;;;;;10.38;8.13;;;;;;;9.17;80.79;99382.02;1736420;80;21512;-70
2021/11/02 15:32:44;;;;;;;10.95;6.70;;;;;;;9.16;80.79;99377.75;1732253;81;21502;-70
2021/11/02 15:35:22;;;;;;;10.15;5.75;;;;;;;9.12;80.75;99376.99;1743840;81;21087;-69
2021/11/02 15:38:00;;;;;;;6.05;5.42;;;;;;;9.11;80.79;99379.62;1740868;80;21520;-69
2021/11/02 15:40:39;;;;;;;6.65;5.20;;;;;;;9.10;80.81;99386.95;1750814;80;21627;-69
2021/11/02 15:43:10;;;;;;;5.75;5.15;;;;;;;9.06;80.78;99391.80;1747952;80;22158;-69
2021/11/02 15:45:40;;;;;;;5.25;4.75;;;;;;;9.04;80.83;99395.72;1745746;80;20965;-69
2021/11/02 15:48:12;;;;;;;5.42;4.92;;;;;;;9.01;80.84;99393.23;1736439;80;21410;-69
2021/11/02 15:50:51;;;;;;;6.33;4.72;;;;;;;9.01;80.84;99394.52;1746064;80;20929;-71
2021/11/02 15:53:20;;;;;;;6.08;4.70;;;;;;;9.00;80.92;99391.53;1749958;80;20937;-70
2021/11/02 15:55:48;;;;;;;5.03;4.53;;;;;;;9.00;80.95;99390.25;1741268;80;21433;-71
2021/11/02 15:58:16;;;;;;;5.30;4.80;;;;;;;9.01;80.96;99388.06;1743393;80;21417;-70
2021/11/02 16:00:45;;;;;;;6.12;4.65;;;;;;;9.02;80.98;99394.91;1743730;80;20873;-71
2021/11/02 16:03:13;;;;;;;5.67;4.72;;;;;;;9.02;80.98;99394.07;1767005;79;20938;-69
2021/11/02 16:05:44;;;;;;;5.83;5.17;;;;;;;9.01;80.91;99389.36;1732158;80;21424;-69
2021/11/02 16:08:20;;;;;;;6.58;5.47;;;;;;;8.99;80.95;99390.29;1735360;80;20926;-69
2021/11/02 16:10:48;;;;;;;;;;;;;;;8.99;81.03;99390.29;1738847;80;21449;-69
2021/11/02 16:13:14;;;;;;;11.50;5.35;;;;;;;8.97;81.14;99389.05;1740452;80;20163;-71
2021/11/02 16:15:43;;;;;;;6.15;5.28;;;;;;;8.95;80.98;99398.56;1739255;80;20867;-71
2021/11/02 16:18:24;;;;;;;8.95;5.87;;;;;;;8.93;81.00;99401.18;1734264;80;20878;-71
2021/11/02 16:20:56;;;;;;;9.90;5.90;;;;;;;8.93;81.06;99401.18;1749840;80;21849;-71
2021/11/02 16:23:26;;;;;;;8.68;5.85;;;;;;;8.95;81.10;99396.83;1733719;80;20910;-69
2021/11/02 16:25:56;;;;;;;7.72;5.75;;;;;;;8.95;81.04;99396.83;1749211;80;20945;-69
2021/11/02 16:28:29;;;;;;;7.75;5.95;;;;;;;8.94;81.05;99400.30;1731273;80;21549;-69
2021/11/02 16:31:03;;;;;;;7.75;5.53;;;;;;;8.95;81.04;99411.45;1737556;80;20907;-69
2021/11/02 16:33:43;;;;;;;7.62;5.75;;;;;;;8.95;81.04;99421.77;1741449;80;20945;-69
2021/11/02 16:36:28;;;;;;;7.53;5.37;;;;;;;8.92;81.00;99423.98;1736464;80;21310;-71
2021/11/02 16:39:02;;;;;;;8.48;5.37;;;;;;;8.92;81.06;99428.30;1751025;80;20901;-71
2021/11/02 16:41:46;;;;;;;8.33;6.12;;;;;;;8.92;81.07;99429.58;1738882;80;20937;-69
2021/11/02 16:44:34;;;;;;;9.23;6.35;;;;;;;8.91;81.08;99438.20;1732987;80;21288;-71
2021/11/02 16:47:10;;;;;;;10.23;6.40;;;;;;;8.89;81.06;99445.98;1727479;80;20929;-71
2021/11/02 16:49:43;;;;;;;7.25;5.97;;;;;;;8.88;81.04;99442.16;1740418;80;20988;-69
2021/11/02 16:52:29;;;;;;;7.00;6.10;;;;;;;8.88;81.05;99451.17;1762040;80;20925;-70
2021/11/02 16:55:15;;;;;;;8.70;5.35;;;;;;;8.84;81.10;99452.99;1746916;80;20930;-71
2021/11/02 16:57:42;;;;;;;7.25;5.85;;;;;;;8.84;81.05;99453.44;1740293;80;21347;-71
2021/11/02 17:00:12;;;;;;;6.78;5.42;;;;;;;8.81;81.07;99460.84;1739079;79;20973;-71